Terminal Aerodrome Forecast
Issued by NWS Medford, OR

Home | Current Version | Previous Version | Text Only | Print | Product List | Glossary On
Versions: 1 2 3 4 5 6 7 8 9 10 11 12 13
000
FTUS46 KMFR 232300
TAFMFR
TAF
KMFR 232339Z 2400/2424 34006KT P6SM SCT070 SCT100 BKN150
     FM240300 15004KT P6SM BKN060 OVC080
     FM241200 15004KT P6SM -RA BKN035 OVC060
     FM242000 VRB06KT 5SM RA BR BKN025 OVC040=

USA.gov is the U.S. government's official web portal to all federal, state and local government web resources and services.